CYZY

Mackenzie Airport

Mackenzie, British Columbia, Canada
METAR CYZY 191607Z AUTO VRB02KT 1 1/2SM -SN SCT016 OVC024 M08/M09 A2954 RMK SLP051
Observed Flight Rules
Jan-19 @ 16:07 UTC (30 minutes ago) Instrument Flight Rules
Wind Visibility Clouds Conditions
Variable at 2 knots 1 1/2 miles
  • Scattered at 1,600' AGL
  • Overcast at 2,400' AGL
  • Light Snow
Temperatures Readings
Current -8°C / 18°F
Dewpoint -9°C / 16°F
Humidity 93%
Altimeter 29.54" Hg
Pressure 1005.1 hPa
Elevation 690
METAR CYZY 191607Z AUTO VRB02KT 1 1/2SM -SN SCT016 OVC024 M08/M09 A2954 RMK SLP051
Observed Flight Rules
Jan-19 @ 16:07 UTC
(30 minutes ago)
IFR
Wind Visibility
Variable at 2 knots 1 1/2 miles
Clouds
  • Scattered at 1,600' AGL
  • Overcast at 2,400' AGL
Conditions
  • Light Snow
Temperature Dewpoint
-8°C / 18°F -9°C / 16°F
Humidity Altimeter Pressure
93% 29.54" Hg 1005.1 hPa